Kennewick, Washington
Current Conditions -  °F | °C
As of 9:53 PM on Sunday 23 Nov 2014 (Local Time) from KPSC Reporting Station
Clear Clear  
Wind Chill: -1°   Ceiling: Unl
Heat Index:   Visibility: 10mi
Dew Point:   Wind: 8mph
Humidity: 86%   Direction: 250°WSW
Pressure: 30.25"   Gusts: NA
Location:  46.21°N, 119.11°W
Report Text: KPSC 240553Z 25007KT 10SM CLR 03/01 A3025 RMK AO2 SNB06E08 SLP246 P0000 60000 T00280006 10117 20022 51022
Loading
Personal Weather Stations






























Interactive Weather Map New forecast layout! Learn more

10-Day Weather Forecast

Advertisements
Track Severe Weather on mobile